Time;durP1;ratioP1;P1;durP2;ratioP2;P2;SDS_P1;SDS_P2;PMS_P1;PMS_P2;Temp;Humidity;BMP_temperature;BMP_pressure;BME280_temperature;BME280_humidity;BME280_pressure;Samples;Min_cycle;Max_cycle;Signal;HPM_P1;HPM_P2
2022/09/24 00:01:20;;;;;;;2.53;2.20;;;;;;;14.80;47.61;99881.94;5070564;28;20048;-79
2022/09/24 00:03:51;;;;;;;2.45;2.30;;;;;;;14.75;48.09;99876.38;5070734;28;20025;-79
2022/09/24 00:06:20;;;;;;;2.50;2.30;;;;;;;14.55;47.90;99860.34;5071656;28;20027;-79
2022/09/24 00:08:47;;;;;;;2.53;2.33;;;;;;;14.32;48.00;99839.31;5074125;28;20146;-79
2022/09/24 00:11:13;;;;;;;3.85;2.47;;;;;;;14.53;48.37;99889.75;5074180;28;20465;-79
2022/09/24 00:13:39;;;;;;;3.58;2.40;;;;;;;14.35;48.06;99848.75;5073024;28;20029;-79
2022/09/24 00:16:09;;;;;;;2.60;2.40;;;;;;;14.54;47.99;99896.72;5074119;28;20028;-79
2022/09/24 00:18:34;;;;;;;2.65;2.45;;;;;;;14.25;48.04;99860.53;5073867;28;20489;-79
2022/09/24 00:21:00;;;;;;;2.72;2.42;;;;;;;13.85;48.38;99784.25;5074092;28;20039;-79
2022/09/24 00:23:26;;;;;;;2.50;2.30;;;;;;;14.39;48.54;99876.56;5072776;28;20610;-78
2022/09/24 00:28:36;;;;;;;2.67;2.42;;;;;;;13.88;48.92;99813.88;5074086;28;20507;-79
2022/09/24 00:31:06;;;;;;;4.00;2.10;;;;;;;14.08;48.62;99845.88;5073802;28;20031;-79
2022/09/24 00:33:33;;;;;;;3.70;2.35;;;;;;;13.91;48.70;99828.59;5074590;28;20032;-79
2022/09/24 00:36:02;;;;;;;2.70;2.50;;;;;;;14.21;48.77;99880.53;5073611;28;20024;-79
2022/09/24 00:38:28;;;;;;;2.50;2.30;;;;;;;13.47;48.94;99781.91;5072532;28;20104;-79
2022/09/24 00:40:54;;;;;;;3.45;2.40;;;;;;;13.84;49.35;99844.47;5073465;28;20030;-79
2022/09/24 00:43:29;;;;;;;3.78;2.30;;;;;;;13.59;49.05;99806.91;5073547;28;20475;-78
2022/09/24 00:46:14;;;;;;;2.38;2.17;;;;;;;13.72;49.43;99837.22;5073483;28;20078;-79
2022/09/24 00:48:41;;;;;;;3.67;2.47;;;;;;;13.47;49.17;99795.16;5073823;28;20103;-79
2022/09/24 00:51:11;;;;;;;3.20;2.10;;;;;;;13.45;49.19;99818.41;5073371;28;20028;-79
2022/09/24 00:53:37;;;;;;;2.53;2.33;;;;;;;13.40;49.25;99785.50;5073414;28;20483;-79
2022/09/24 00:56:05;;;;;;;2.58;2.38;;;;;;;13.31;49.09;99771.53;5073295;28;20040;-79
2022/09/24 00:58:31;;;;;;;3.88;2.17;;;;;;;13.78;48.91;99845.22;5073675;28;20031;-79
2022/09/24 01:01:02;;;;;;;2.50;2.30;;;;;;;13.54;49.10;99811.13;5073216;28;20053;-79
2022/09/24 01:03:30;;;;;;;2.97;2.65;;;;;;;13.66;49.09;99857.38;5073276;28;20512;-79
2022/09/24 01:05:55;;;;;;;2.80;2.30;;;;;;;13.94;49.09;99876.00;5073285;28;20031;-79
2022/09/24 01:08:21;;;;;;;2.55;2.33;;;;;;;13.05;49.00;99740.25;5073232;28;20409;-79
2022/09/24 01:11:06;;;;;;;3.33;2.55;;;;;;;13.64;49.18;99841.66;5073114;28;20029;-79
2022/09/24 01:13:51;;;;;;;2.95;2.72;;;;;;;13.84;49.37;99873.66;5072965;28;20485;-79
2022/09/24 01:16:38;;;;;;;2.70;2.20;;;;;;;13.91;48.92;99869.22;5071327;28;20460;-79
2022/09/24 01:19:10;;;;;;;2.50;2.20;;;;;;;13.95;48.62;99878.44;5072784;28;20033;-79
2022/09/24 01:21:35;;;;;;;2.67;2.47;;;;;;;14.02;48.46;99867.88;5072878;28;20093;-79
2022/09/24 01:24:00;;;;;;;2.72;2.53;;;;;;;14.04;48.44;99868.50;5073041;28;20024;-78
2022/09/24 01:26:55;;;;;;;3.05;2.40;;;;;;;14.02;48.50;99867.06;5072783;28;20112;-79
2022/09/24 01:29:30;;;;;;;2.38;2.00;;;;;;;13.38;48.51;99766.28;5072602;28;20028;-79
2022/09/24 01:32:22;;;;;;;2.50;2.30;;;;;;;13.49;49.18;99814.38;5072601;28;20032;-79
2022/09/24 01:34:55;;;;;;;3.58;2.10;;;;;;;13.14;48.75;99754.19;5072471;28;20409;-78
2022/09/24 01:37:23;;;;;;;2.38;2.17;;;;;;;13.39;48.73;99771.44;5071196;28;20024;-79
2022/09/24 01:39:52;;;;;;;2.42;2.22;;;;;;;13.99;48.82;99876.22;5072507;28;20028;-79
2022/09/24 01:42:22;;;;;;;4.00;2.67;;;;;;;13.81;48.76;99852.00;5071307;28;20113;-79
2022/09/24 01:44:49;;;;;;;2.47;2.20;;;;;;;13.73;49.14;99846.81;5072473;28;20451;-79
2022/09/24 01:47:26;;;;;;;2.40;2.20;;;;;;;13.49;49.11;99824.16;5072360;28;20024;-78
2022/09/24 01:49:52;;;;;;;2.15;1.95;;;;;;;13.61;49.14;99859.78;5072359;28;20035;-79
2022/09/24 01:52:24;;;;;;;2.50;2.30;;;;;;;13.83;48.93;99876.50;5072259;28;20505;-79
2022/09/24 01:54:51;;;;;;;3.38;2.17;;;;;;;13.02;48.88;99760.00;5072350;28;20104;-78
2022/09/24 01:57:26;;;;;;;2.90;2.17;;;;;;;13.76;48.96;99875.63;5072384;28;20036;-78
2022/09/24 02:00:01;;;;;;;3.00;2.70;;;;;;;13.65;48.80;99858.38;5072429;28;20113;-79
2022/09/24 02:02:48;;;;;;;2.63;2.25;;;;;;;13.87;48.77;99886.56;5071178;28;20028;-79
2022/09/24 02:05:23;;;;;;;3.40;2.88;;;;;;;13.84;48.75;99883.47;5071208;28;20043;-79
2022/09/24 02:08:13;;;;;;;3.03;2.35;;;;;;;13.52;49.24;99866.22;5072211;28;20032;-79
2022/09/24 02:10:55;;;;;;;3.15;2.83;;;;;;;13.07;49.44;99796.53;5071004;28;20028;-79
2022/09/24 02:13:24;;;;;;;3.22;2.60;;;;;;;12.95;49.09;99792.75;5071636;28;20055;-79
2022/09/24 02:15:56;;;;;;;3.17;2.33;;;;;;;13.50;49.42;99908.84;5071553;28;20081;-79
2022/09/24 02:18:27;;;;;;;2.85;2.53;;;;;;;12.76;49.33;99809.25;5071843;28;20035;-79
2022/09/24 02:20:55;;;;;;;4.80;2.55;;;;;;;13.30;49.68;99897.16;5071675;28;20031;-79
2022/09/24 02:23:23;;;;;;;3.95;3.17;;;;;;;13.31;49.49;99912.91;5071655;28;20101;-80
2022/09/24 02:25:57;;;;;;;3.17;2.63;;;;;;;13.22;49.55;99913.19;5071672;28;20032;-79
2022/09/24 02:28:23;;;;;;;3.30;2.50;;;;;;;12.51;49.82;99811.34;5071385;28;20106;-79
2022/09/24 02:30:53;;;;;;;5.70;3.00;;;;;;;13.15;50.02;99914.91;5071569;28;20028;-79
2022/09/24 02:36:07;;;;;;;2.60;2.40;;;;;;;12.62;49.72;99864.69;5071727;28;20094;-79
2022/09/24 02:38:33;;;;;;;2.90;2.70;;;;;;;12.52;49.83;99837.66;5071642;28;20467;-79
2022/09/24 02:40:59;;;;;;;2.88;2.67;;;;;;;13.03;49.56;99909.25;5071554;28;20020;-79
2022/09/24 02:43:24;;;;;;;2.67;2.47;;;;;;;13.02;49.51;99894.38;5071465;28;20107;-79
2022/09/24 02:45:50;;;;;;;2.80;2.45;;;;;;;13.16;49.60;99922.69;5071464;28;20017;-79
2022/09/24 02:48:15;;;;;;;2.60;2.40;;;;;;;12.84;49.46;99872.72;5071590;28;20416;-79
2022/09/24 02:50:41;;;;;;;2.83;2.50;;;;;;;12.40;49.39;99802.03;5071347;28;20485;-79
2022/09/24 02:53:06;;;;;;;2.75;2.50;;;;;;;13.13;49.23;99899.19;5071326;28;20029;-79
2022/09/24 02:55:32;;;;;;;4.13;3.13;;;;;;;12.98;49.39;99887.78;5071348;28;20025;-79
2022/09/24 02:57:57;;;;;;;5.97;2.53;;;;;;;12.65;49.89;99843.16;5071348;28;20031;-79
2022/09/24 03:00:22;;;;;;;3.20;2.90;;;;;;;12.59;49.96;99827.97;5071240;28;20059;-79
2022/09/24 03:02:48;;;;;;;2.95;2.70;;;;;;;12.88;49.86;99882.78;5071261;28;20028;-79
2022/09/24 03:05:17;;;;;;;3.40;3.03;;;;;;;12.38;49.89;99802.22;5071173;28;20032;-79
2022/09/24 03:07:43;;;;;;;4.05;2.85;;;;;;;12.93;49.67;99885.69;5070014;28;20107;-79
2022/09/24 03:10:09;;;;;;;2.97;2.40;;;;;;;13.05;49.54;99912.56;5071340;28;20085;-79
2022/09/24 03:12:34;;;;;;;2.72;2.42;;;;;;;13.32;49.38;99940.22;5071230;28;20032;-79
2022/09/24 03:15:00;;;;;;;5.15;2.47;;;;;;;13.32;49.34;99956.97;5071283;28;20032;-79
2022/09/24 03:17:26;;;;;;;2.97;2.70;;;;;;;12.90;49.01;99872.81;5071222;28;20029;-80
2022/09/24 03:19:52;;;;;;;8.48;3.10;;;;;;;13.19;49.29;99943.56;5071185;28;20059;-79
2022/09/24 03:22:17;;;;;;;4.20;2.67;;;;;;;12.54;49.40;99854.19;5071231;28;20056;-79
2022/09/24 03:24:42;;;;;;;2.92;2.70;;;;;;;13.10;49.60;99941.16;5070138;28;20028;-79
2022/09/24 03:27:08;;;;;;;3.00;2.60;;;;;;;12.89;49.36;99924.16;5071172;28;20051;-79
2022/09/24 03:32:17;;;;;;;3.55;2.80;;;;;;;12.65;49.71;99901.44;5071197;28;20488;-79
2022/09/24 03:34:42;;;;;;;2.80;2.60;;;;;;;12.39;49.37;99874.53;5071028;28;20059;-79
2022/09/24 03:37:08;;;;;;;3.72;3.20;;;;;;;12.13;49.86;99835.25;5071562;28;20123;-79
2022/09/24 03:39:33;;;;;;;3.25;2.97;;;;;;;12.19;49.50;99884.81;5071210;28;20025;-79
2022/09/24 03:41:59;;;;;;;3.40;2.70;;;;;;;12.73;49.52;99966.75;5074784;28;20032;-79
2022/09/24 03:44:24;;;;;;;4.05;3.65;;;;;;;12.08;49.71;99858.78;5075044;28;20089;-79
2022/09/24 03:46:50;;;;;;;3.35;3.08;;;;;;;12.09;49.93;99869.19;5074950;28;20074;-79
2022/09/24 03:49:16;;;;;;;4.00;3.60;;;;;;;12.18;49.39;99891.13;5073478;28;20473;-79
2022/09/24 03:51:41;;;;;;;3.65;3.35;;;;;;;12.62;49.93;99961.88;5074589;28;20024;-79
2022/09/24 03:54:07;;;;;;;3.50;3.20;;;;;;;12.19;49.55;99906.00;5074426;28;20028;-79
2022/09/24 03:56:32;;;;;;;4.15;3.60;;;;;;;12.66;49.31;99965.84;5074289;28;20036;-79
2022/09/24 03:58:58;;;;;;;4.50;3.97;;;;;;;11.72;49.32;99827.63;5074584;28;20024;-79
2022/09/24 04:01:23;;;;;;;6.32;4.22;;;;;;;12.26;49.60;99925.47;5074225;28;20045;-79
2022/09/24 04:03:49;;;;;;;3.47;3.17;;;;;;;12.71;49.64;99977.53;5074350;28;20458;-79
2022/09/24 04:06:15;;;;;;;4.78;3.42;;;;;;;12.51;49.72;99981.66;5074331;28;20495;-79
2022/09/24 04:08:40;;;;;;;4.32;3.15;;;;;;;12.23;50.14;99932.94;5074282;28;20028;-79
2022/09/24 04:11:06;;;;;;;3.50;3.08;;;;;;;12.23;49.56;99925.81;5074301;28;20111;-79
2022/09/24 04:13:31;;;;;;;4.25;3.22;;;;;;;11.41;50.09;99819.78;5074209;28;20028;-79
2022/09/24 04:16:01;;;;;;;3.80;3.38;;;;;;;12.44;50.14;99985.22;5073921;28;20112;-79
2022/09/24 04:18:27;;;;;;;3.70;3.30;;;;;;;12.34;50.18;99990.75;5074207;28;20481;-79
2022/09/24 04:20:57;;;;;;;5.65;3.55;;;;;;;11.98;50.50;99950.84;5074020;28;20021;-79
2022/09/24 04:23:22;;;;;;;4.07;3.38;;;;;;;12.09;50.76;99967.13;5073691;28;20063;-79
2022/09/24 04:25:48;;;;;;;4.10;3.70;;;;;;;11.55;50.75;99886.94;5074327;28;20485;-79
2022/09/24 04:28:13;;;;;;;4.45;4.05;;;;;;;11.42;50.72;99854.97;5073982;28;20483;-80
2022/09/24 04:30:39;;;;;;;5.60;4.32;;;;;;;12.19;50.30;100008.44;5073728;28;20043;-79
2022/09/24 04:33:06;;;;;;;6.60;3.53;;;;;;;11.44;50.30;99897.94;5072891;28;20028;-79
2022/09/24 04:35:34;;;;;;;3.53;3.22;;;;;;;12.17;50.43;100013.91;5072598;28;20035;-79
2022/09/24 04:38:00;;;;;;;5.20;3.85;;;;;;;11.84;50.48;99986.81;5073839;28;20101;-79
2022/09/24 04:40:26;;;;;;;4.47;4.07;;;;;;;11.52;50.65;99949.94;5074055;28;20477;-79
2022/09/24 04:42:52;;;;;;;4.55;3.53;;;;;;;12.05;50.37;100008.19;5073730;28;20044;-79
2022/09/24 04:45:19;;;;;;;4.22;3.55;;;;;;;12.06;50.80;100004.53;5073717;28;20054;-79
2022/09/24 04:47:54;;;;;;;5.28;4.10;;;;;;;11.73;50.53;99985.34;5073752;28;20485;-79
2022/09/24 04:50:20;;;;;;;6.88;3.90;;;;;;;11.90;50.61;99993.25;5072467;28;20071;-79
2022/09/24 04:52:46;;;;;;;5.90;4.10;;;;;;;11.39;50.46;99914.31;5072913;28;20052;-79
2022/09/24 04:55:12;;;;;;;5.15;3.88;;;;;;;11.47;50.00;99926.66;5073301;28;20113;-80
2022/09/24 04:57:37;;;;;;;3.72;3.42;;;;;;;11.81;50.20;99995.09;5073300;28;20474;-79
2022/09/24 05:00:05;;;;;;;4.82;3.33;;;;;;;12.23;50.23;100037.00;5073304;28;20052;-79
2022/09/24 05:02:31;;;;;;;3.55;3.20;;;;;;;12.23;50.01;100039.66;5073217;28;20501;-79
2022/09/24 05:04:56;;;;;;;4.53;3.33;;;;;;;11.48;50.20;99932.78;5073016;28;20029;-79
2022/09/24 05:07:21;;;;;;;4.65;3.92;;;;;;;11.82;50.31;99982.69;5072040;28;20027;-79
2022/09/24 05:09:47;;;;;;;5.40;3.70;;;;;;;11.88;50.71;99976.69;5073213;28;20093;-79
2022/09/24 05:12:13;;;;;;;4.80;3.65;;;;;;;11.72;49.68;99932.63;5073189;28;20542;-79
2022/09/24 05:14:38;;;;;;;7.43;3.92;;;;;;;12.18;49.60;99997.00;5073384;28;20048;-79
2022/09/24 05:17:04;;;;;;;9.20;4.07;;;;;;;12.18;50.00;99990.91;5074903;28;20028;-79
2022/09/24 05:19:29;;;;;;;5.35;3.67;;;;;;;12.12;49.78;99965.13;5074482;28;20040;-79
2022/09/24 05:21:55;;;;;;;6.57;3.58;;;;;;;12.58;49.63;100030.28;5079618;28;20039;-79
2022/09/24 05:24:20;;;;;;;3.95;3.55;;;;;;;12.12;49.62;99943.97;5072602;28;20482;-80
2022/09/24 05:29:30;;;;;;;6.57;4.22;;;;;;;12.52;49.29;100001.84;5072830;28;20059;-79
2022/09/24 05:31:55;;;;;;;6.65;4.45;;;;;;;12.65;49.43;99990.69;5072660;28;20477;-79
2022/09/24 05:34:21;;;;;;;6.28;4.20;;;;;;;12.92;48.97;100026.34;5072628;28;20086;-79
2022/09/24 05:36:46;;;;;;;6.68;4.40;;;;;;;12.25;48.92;99918.53;5072484;28;20021;-79
2022/09/24 05:39:12;;;;;;;7.97;4.72;;;;;;;13.09;48.83;100033.13;5072575;28;20066;-79
2022/09/24 05:41:38;;;;;;;7.25;4.57;;;;;;;13.16;48.86;100052.59;5072502;28;20028;-79
2022/09/24 05:44:04;;;;;;;4.85;4.40;;;;;;;13.19;48.90;100039.00;5072581;28;20107;-79
2022/09/24 05:46:30;;;;;;;6.45;4.57;;;;;;;13.25;49.01;100040.91;5072368;28;20108;-79
2022/09/24 05:48:55;;;;;;;4.50;3.67;;;;;;;12.94;48.77;99981.94;5072395;28;20484;-79
2022/09/24 05:51:21;;;;;;;6.75;5.25;;;;;;;12.70;48.47;99924.72;5072268;28;20070;-79
2022/09/24 05:53:47;;;;;;;5.50;4.25;;;;;;;12.71;48.40;99921.06;5072378;28;20041;-79
2022/09/24 05:56:13;;;;;;;5.38;3.85;;;;;;;13.14;48.58;99988.31;5072141;28;20039;-79
2022/09/24 05:58:38;;;;;;;3.70;2.88;;;;;;;12.85;48.38;99928.19;5071083;28;20025;-79
2022/09/24 06:01:04;;;;;;;3.60;2.72;;;;;;;13.07;48.37;99963.56;5070763;28;20056;-77
2022/09/24 06:03:30;;;;;;;4.80;2.88;;;;;;;13.04;48.22;99963.91;5070194;28;20060;-79
2022/09/24 06:05:58;;;;;;;3.45;3.13;;;;;;;13.12;47.88;99963.00;5071033;28;20067;-79
2022/09/24 06:08:23;;;;;;;3.45;2.92;;;;;;;13.29;48.17;99991.00;5072030;28;20028;-79
2022/09/24 06:10:50;;;;;;;6.18;3.30;;;;;;;13.44;47.75;100010.41;5070707;28;20056;-79
2022/09/24 06:13:18;;;;;;;6.35;2.80;;;;;;;13.66;47.88;100038.63;5071718;28;20025;-79
2022/09/24 06:15:44;;;;;;;5.18;3.10;;;;;;;13.68;47.50;100044.56;5071522;28;20021;-79
2022/09/24 06:18:10;;;;;;;3.42;3.13;;;;;;;14.00;47.45;100069.84;5071835;28;20032;-79
2022/09/24 06:20:36;;;;;;;5.88;3.28;;;;;;;13.90;47.12;100057.88;5071938;28;20520;-79
2022/09/24 06:23:02;;;;;;;4.20;3.35;;;;;;;13.49;46.70;99964.75;5070434;28;20558;-80
2022/09/24 06:25:29;;;;;;;5.28;3.08;;;;;;;13.99;46.77;100020.41;5071720;28;20036;-79
2022/09/24 06:28:00;;;;;;;4.88;3.28;;;;;;;14.34;46.81;100078.19;5071759;28;20099;-79
2022/09/24 06:30:28;;;;;;;5.82;3.03;;;;;;;14.43;46.58;100075.25;5071625;28;20033;-79
2022/09/24 06:32:54;;;;;;;5.18;3.22;;;;;;;14.25;46.27;100035.81;5071376;28;20028;-79
2022/09/24 06:35:19;;;;;;;4.85;2.97;;;;;;;14.21;46.33;100001.88;5070309;28;20508;-79
2022/09/24 06:37:46;;;;;;;4.47;3.35;;;;;;;14.60;45.90;100046.59;5071719;28;20020;-79
2022/09/24 06:40:12;;;;;;;4.07;3.53;;;;;;;14.60;45.71;100066.00;5071777;28;20032;-79
2022/09/24 06:42:37;;;;;;;3.45;3.10;;;;;;;14.35;45.92;99984.22;5071737;28;20054;-79
2022/09/24 06:45:03;;;;;;;3.03;2.67;;;;;;;14.96;45.47;100074.91;5071756;28;20032;-79
2022/09/24 06:47:29;;;;;;;3.78;3.20;;;;;;;15.01;45.42;100069.81;5072029;28;20436;-79
2022/09/24 06:49:54;;;;;;;3.10;2.70;;;;;;;14.97;45.23;100049.97;5071514;28;20033;-79
2022/09/24 06:52:22;;;;;;;3.25;2.67;;;;;;;14.77;44.86;99999.28;5071289;28;20032;-80
2022/09/24 06:54:47;;;;;;;2.45;2.15;;;;;;;14.50;44.91;99931.84;5071110;28;20035;-80
2022/09/24 06:57:14;;;;;;;3.15;2.17;;;;;;;15.43;44.65;100068.88;5071069;28;20461;-79
2022/09/24 06:59:40;;;;;;;3.95;2.30;;;;;;;14.78;44.51;99953.06;5070866;28;20024;-79
2022/09/24 07:02:07;;;;;;;2.58;2.17;;;;;;;15.32;44.76;100016.19;5069782;28;20051;-79
2022/09/24 07:04:32;;;;;;;4.95;2.90;;;;;;;15.43;44.46;100035.09;5071107;28;20082;-79
2022/09/24 07:09:41;;;;;;;2.38;2.17;;;;;;;15.33;44.36;99994.72;5071260;28;20058;-79
2022/09/24 07:12:07;;;;;;;3.60;2.72;;;;;;;15.62;44.17;100027.44;5071301;28;20032;-79
2022/09/24 07:14:33;;;;;;;3.60;3.22;;;;;;;15.30;44.12;99965.84;5072441;28;20166;-79
2022/09/24 07:16:59;;;;;;;3.38;2.92;;;;;;;15.71;44.30;100010.28;5075162;28;20417;-79
2022/09/24 07:19:24;;;;;;;3.13;2.65;;;;;;;15.73;44.04;99994.94;5075205;28;20033;-79
2022/09/24 07:21:49;;;;;;;7.43;3.65;;;;;;;15.63;43.74;99971.34;5073907;28;20024;-79
2022/09/24 07:24:15;;;;;;;4.05;3.38;;;;;;;15.78;43.59;99971.19;5075165;28;20025;-79
2022/09/24 07:26:40;;;;;;;6.85;4.05;;;;;;;15.78;43.43;99969.34;5074979;28;20021;-79
2022/09/24 07:29:06;;;;;;;6.18;3.70;;;;;;;16.60;43.49;100082.84;5074092;28;20025;-79
2022/09/24 07:31:32;;;;;;;3.13;2.78;;;;;;;16.65;42.94;100071.56;5075068;28;20488;-79
2022/09/24 07:33:58;;;;;;;4.80;2.92;;;;;;;16.52;42.47;100043.88;5075019;28;20025;-80
2022/09/24 07:36:23;;;;;;;2.28;2.08;;;;;;;16.27;42.32;100005.47;5075103;28;20035;-79
2022/09/24 07:38:49;;;;;;;4.15;2.25;;;;;;;16.13;41.80;99971.84;5075210;28;20029;-79
2022/09/24 07:41:14;;;;;;;3.63;2.20;;;;;;;15.84;41.82;99938.44;5075166;28;20020;-79
2022/09/24 07:43:42;;;;;;;2.40;2.20;;;;;;;16.42;42.00;100000.81;5074992;28;20029;-80
2022/09/24 07:46:07;;;;;;;2.50;2.30;;;;;;;16.94;42.01;100065.84;5074878;28;20055;-79
2022/09/24 07:48:33;;;;;;;2.90;2.58;;;;;;;16.33;41.64;99977.19;5073522;28;20115;-80
2022/09/24 07:50:58;;;;;;;3.83;2.25;;;;;;;16.43;41.21;99966.97;5074796;28;20049;-80
2022/09/24 07:53:23;;;;;;;2.50;2.20;;;;;;;17.04;40.98;100058.22;5074835;28;20032;-80
2022/09/24 07:55:49;;;;;;;3.05;2.53;;;;;;;16.68;40.99;99991.19;5074510;28;20032;-79
2022/09/24 07:58:15;;;;;;;2.20;2.10;;;;;;;16.68;40.89;99969.84;5075182;28;20032;-79
2022/09/24 08:00:41;;;;;;;3.67;2.03;;;;;;;17.45;40.80;100073.16;5074508;28;20135;-79
2022/09/24 08:03:06;;;;;;;2.78;2.30;;;;;;;17.55;40.51;100070.06;5074784;28;20037;-79
2022/09/24 08:05:32;;;;;;;2.53;2.33;;;;;;;17.24;40.13;100015.53;5074658;28;20505;-79
2022/09/24 08:07:58;;;;;;;2.30;2.10;;;;;;;17.40;39.82;100025.75;5074154;28;20024;-79
2022/09/24 08:10:25;;;;;;;2.60;2.40;;;;;;;17.75;39.76;100062.81;5074233;28;20572;-79
2022/09/24 08:12:51;;;;;;;3.38;2.00;;;;;;;17.47;39.41;100007.84;5074321;28;20048;-79
2022/09/24 08:15:17;;;;;;;2.80;1.88;;;;;;;17.65;39.39;100003.66;5076372;28;20056;-79
2022/09/24 08:17:43;;;;;;;3.42;2.30;;;;;;;17.42;39.44;99950.78;5081995;28;20059;-79
2022/09/24 08:20:09;;;;;;;2.67;2.47;;;;;;;18.06;39.19;100046.03;5081523;28;20473;-79
2022/09/24 08:22:34;;;;;;;2.47;1.88;;;;;;;17.61;38.58;99955.22;5075179;28;20024;-80
2022/09/24 08:25:02;;;;;;;2.50;2.30;;;;;;;17.65;38.06;99945.72;5074557;28;20481;-79
2022/09/24 08:27:27;;;;;;;3.45;2.38;;;;;;;17.90;38.09;99961.88;5073943;28;20025;-79
2022/09/24 08:29:52;;;;;;;2.55;2.00;;;;;;;18.52;37.79;100047.59;5074681;28;20020;-80
2022/09/24 08:32:18;;;;;;;3.17;1.92;;;;;;;18.51;37.72;100016.53;5073833;28;20028;-79
2022/09/24 08:34:44;;;;;;;4.95;2.20;;;;;;;18.83;37.37;100041.41;5072692;28;20485;-79
2022/09/24 08:37:10;;;;;;;2.47;2.28;;;;;;;18.97;36.93;100033.06;5073796;28;20149;-79
2022/09/24 08:39:36;;;;;;;3.13;2.35;;;;;;;19.03;36.56;100032.16;5073907;28;20032;-79
2022/09/24 08:42:10;;;;;;;3.85;2.03;;;;;;;19.27;36.21;100026.97;5073701;28;20398;-79
2022/09/24 08:47:47;;;;;;;2.58;1.90;;;;;;;19.55;35.61;100030.00;5074164;28;20085;-77
2022/09/24 08:50:20;;;;;;;2.95;1.83;;;;;;;19.53;34.76;100002.63;5078256;28;20028;-79
2022/09/24 08:53:16;;;;;;;3.55;2.20;;;;;;;19.77;33.53;100027.66;5095196;28;20024;-79
2022/09/24 08:55:47;;;;;;;4.05;1.80;;;;;;;19.85;34.04;100038.06;5087228;28;20090;-79
2022/09/24 08:58:54;;;;;;;2.47;1.80;;;;;;;19.45;33.28;99962.72;5073654;28;20052;-79
2022/09/24 09:01:23;;;;;;;5.05;1.70;;;;;;;19.81;32.56;99987.84;5072618;28;20053;-79
2022/09/24 09:03:51;;;;;;;2.20;2.00;;;;;;;20.21;33.08;100025.66;5073879;28;20020;-79
2022/09/24 09:07:01;;;;;;;3.28;2.00;;;;;;;20.37;32.86;100018.81;5072598;28;20025;-79
2022/09/24 09:09:58;;;;;;;2.40;2.10;;;;;;;20.08;32.10;99962.31;5073219;28;20036;-79
2022/09/24 09:12:36;;;;;;;1.85;1.75;;;;;;;20.30;32.38;99971.44;5073292;28;20028;-79
2022/09/24 09:15:18;;;;;;;2.03;1.70;;;;;;;20.48;31.47;100005.44;5073354;28;20421;-79
2022/09/24 09:17:49;;;;;;;2.10;1.90;;;;;;;20.26;31.56;99938.09;5072074;28;20029;-79
2022/09/24 09:20:23;;;;;;;2.20;1.90;;;;;;;20.43;31.42;99948.19;5073197;28;20044;-79
2022/09/24 09:22:52;;;;;;;2.35;1.77;;;;;;;20.91;31.12;100007.81;5073255;28;20599;-80
2022/09/24 09:25:27;;;;;;;2.90;1.70;;;;;;;20.86;31.38;99962.06;5073309;28;20622;-78
2022/09/24 09:28:14;;;;;;;2.15;1.90;;;;;;;21.29;29.60;100001.16;5073098;28;20027;-79
2022/09/24 09:31:11;;;;;;;1.90;1.80;;;;;;;21.26;29.98;99998.94;5073073;28;20492;-79
2022/09/24 09:33:48;;;;;;;1.58;1.48;;;;;;;21.39;30.04;99987.94;5069447;28;20041;-78
2022/09/24 09:36:23;;;;;;;3.53;1.77;;;;;;;21.63;29.96;99998.63;5072976;28;20056;-80
2022/09/24 09:39:11;;;;;;;2.40;2.20;;;;;;;21.76;29.78;99998.34;5071502;28;20820;-79
2022/09/24 09:41:57;;;;;;;1.75;1.60;;;;;;;21.95;29.42;99994.41;5066340;28;20127;-79
2022/09/24 09:44:26;;;;;;;1.92;1.83;;;;;;;22.06;29.32;100003.50;5072632;28;20060;-77
2022/09/24 09:47:20;;;;;;;2.40;2.10;;;;;;;22.21;28.13;99995.69;5072580;28;20020;-78
2022/09/24 09:49:50;;;;;;;2.38;2.10;;;;;;;21.95;28.66;99954.06;5069000;28;20032;-77
2022/09/24 09:52:19;;;;;;;2.33;1.60;;;;;;;22.58;28.39;99997.94;5071336;28;20043;-79
2022/09/24 09:54:46;;;;;;;4.00;1.80;;;;;;;22.76;28.20;99987.72;5069480;28;20051;-79
2022/09/24 09:57:20;;;;;;;2.38;1.83;;;;;;;22.90;27.58;99993.59;5072037;28;20028;-79
2022/09/24 09:59:48;;;;;;;3.60;1.92;;;;;;;23.00;27.48;99972.19;5072169;28;20044;-79
2022/09/24 10:02:22;;;;;;;1.67;1.50;;;;;;;22.89;27.21;99932.72;5070966;28;20489;-79
2022/09/24 10:04:52;;;;;;;2.58;2.10;;;;;;;22.57;26.89;99856.34;5072203;28;20489;-78
2022/09/24 10:07:17;;;;;;;5.10;2.97;;;;;;;22.71;26.94;99853.03;5071933;28;20054;-79
2022/09/24 10:09:45;;;;;;;2.22;2.03;;;;;;;23.38;26.46;99939.03;5071908;28;20059;-78
2022/09/24 10:12:21;;;;;;;4.70;2.75;;;;;;;23.65;26.31;99959.81;5071831;28;20048;-79
2022/09/24 10:15:20;;;;;;;2.65;2.05;;;;;;;23.29;25.48;99869.66;5072038;28;20096;-79
2022/09/24 10:17:49;;;;;;;2.42;2.22;;;;;;;23.74;26.40;99917.84;5059210;28;20037;-79
2022/09/24 10:20:31;;;;;;;3.30;1.90;;;;;;;24.16;25.49;99938.75;5071698;28;20512;-77
2022/09/24 10:23:05;;;;;;;;;;;;;;;24.39;25.33;99946.50;5070890;28;20017;-78
2022/09/24 10:25:33;;;;;;;2.47;2.28;;;;;;;24.56;26.23;99954.50;5071659;28;19923;-80
2022/09/24 10:31:02;;;;;;;2.30;1.70;;;;;;;24.85;24.60;99887.41;5071603;28;20024;-79
2022/09/24 10:33:43;;;;;;;1.80;1.67;;;;;;;24.78;24.68;99894.94;5071846;28;20450;-79
2022/09/24 10:36:34;;;;;;;2.08;1.88;;;;;;;25.15;24.16;99919.19;5071592;28;20078;-79
2022/09/24 10:39:13;;;;;;;2.40;1.50;;;;;;;25.29;24.23;99934.66;5069432;28;20402;-79
2022/09/24 10:41:49;;;;;;;1.85;1.75;;;;;;;25.23;24.13;99930.28;5071528;28;20032;-79
2022/09/24 10:44:16;;;;;;;3.08;1.70;;;;;;;25.34;23.86;99920.34;5070004;28;20027;-79
2022/09/24 10:47:03;;;;;;;2.03;1.88;;;;;;;25.42;23.56;99924.44;5071195;28;20044;-79
2022/09/24 10:49:49;;;;;;;1.55;1.45;;;;;;;25.46;23.07;99926.34;5070789;28;20021;-78
2022/09/24 10:52:36;;;;;;;1.63;1.52;;;;;;;25.67;23.26;99916.41;5071313;28;20048;-78
2022/09/24 10:55:10;;;;;;;1.35;1.25;;;;;;;25.68;22.21;99917.22;5071474;28;20417;-78
2022/09/24 10:57:48;;;;;;;2.38;1.70;;;;;;;25.74;22.88;99919.66;5069914;28;20117;-78
2022/09/24 11:00:13;;;;;;;5.13;1.45;;;;;;;25.80;22.38;99910.47;5069806;28;20080;-78
2022/09/24 11:03:23;;;;;;;2.08;1.55;;;;;;;25.96;21.94;99903.97;5071231;28;20056;-78
2022/09/24 11:05:52;;;;;;;1.85;1.30;;;;;;;26.21;22.45;99907.78;5066490;28;20120;-80
2022/09/24 11:08:25;;;;;;;1.60;1.50;;;;;;;26.32;21.79;99912.09;5071623;28;20024;-79
2022/09/24 11:11:14;;;;;;;1.50;1.40;;;;;;;26.28;21.68;99909.13;5071814;28;20490;-79
2022/09/24 11:14:05;;;;;;;2.65;1.58;;;;;;;25.73;20.59;99833.38;5071604;28;20017;-78
2022/09/24 11:17:08;;;;;;;1.52;1.42;;;;;;;26.20;21.17;99903.47;5071171;28;20017;-79
2022/09/24 11:19:42;;;;;;;1.60;1.30;;;;;;;26.31;21.38;99893.44;5071647;28;20102;-78
2022/09/24 11:22:15;;;;;;;1.60;1.40;;;;;;;25.98;21.71;99828.75;5071556;28;20108;-79
2022/09/24 11:25:02;;;;;;;1.83;1.50;;;;;;;26.53;21.46;99896.66;5071212;28;20029;-78
2022/09/24 11:27:30;;;;;;;1.77;1.20;;;;;;;26.45;21.50;99889.91;5071082;28;20459;-78
2022/09/24 11:30:01;;;;;;;1.55;1.45;;;;;;;26.56;21.21;99886.09;5071260;28;20021;-78
2022/09/24 11:32:33;;;;;;;2.15;1.27;;;;;;;26.72;21.45;99884.16;5071006;28;20052;-78
2022/09/24 11:35:17;;;;;;;;;;;;;;;26.77;21.12;99877.94;5071472;28;20476;-78
2022/09/24 11:38:01;;;;;;;1.73;1.50;;;;;;;26.64;21.59;99873.88;5070930;28;20358;-79
2022/09/24 11:40:42;;;;;;;2.05;1.23;;;;;;;26.57;21.31;99871.47;5071352;28;20020;-79
2022/09/24 11:43:14;;;;;;;1.60;1.40;;;;;;;26.42;21.20;99873.41;5071291;28;20032;-77
2022/09/24 11:45:53;;;;;;;1.73;1.50;;;;;;;26.28;20.88;99873.94;5071099;28;20121;-79
2022/09/24 11:48:47;;;;;;;1.85;1.70;;;;;;;26.21;20.86;99868.00;5069742;28;20031;-79
2022/09/24 11:51:25;;;;;;;2.08;1.40;;;;;;;26.10;21.13;99865.56;5070657;28;20016;-80
2022/09/24 11:54:13;;;;;;;1.73;1.63;;;;;;;25.90;21.59;99872.59;5070794;28;20028;-78
2022/09/24 11:56:47;;;;;;;1.80;1.70;;;;;;;25.16;21.62;99788.38;5070421;28;20122;-79
2022/09/24 11:59:30;;;;;;;1.55;1.45;;;;;;;25.52;21.43;99865.78;5069421;28;20453;-79
2022/09/24 12:02:02;;;;;;;3.40;3.10;;;;;;;24.86;21.79;99781.00;5071430;28;20140;-79
2022/09/24 12:04:39;;;;;;;2.35;1.83;;;;;;;24.91;22.10;99799.91;5074644;28;20511;-79
2022/09/24 12:07:14;;;;;;;2.60;1.77;;;;;;;24.60;22.99;99767.41;5074520;28;20027;-78